createdAt,value
2023-01-19T00:00:21.523Z,0.60
2023-01-19T00:02:48.154Z,0.50
2023-01-19T00:05:14.787Z,0.50
2023-01-19T00:07:41.859Z,0.40
2023-01-19T00:10:09.322Z,0.40
2023-01-19T00:12:35.829Z,0.30
2023-01-19T00:15:02.398Z,0.30
2023-01-19T00:17:28.978Z,0.20
2023-01-19T00:19:55.540Z,0.20
2023-01-19T00:22:22.279Z,0.20
2023-01-19T00:24:48.873Z,0.10
2023-01-19T00:27:15.455Z,0.10
2023-01-19T00:29:41.972Z,0.10
2023-01-19T00:32:08.483Z,0.00
2023-01-19T00:34:39.493Z,0.00
2023-01-19T00:37:06.858Z,-0.10
2023-01-19T00:39:33.476Z,-0.20
2023-01-19T00:42:18.852Z,-0.10
2023-01-19T00:44:45.464Z,-0.20
2023-01-19T00:47:12.034Z,-0.30
2023-01-19T00:49:38.637Z,-0.30
2023-01-19T00:52:05.452Z,-0.30
2023-01-19T00:54:31.970Z,-0.40
2023-01-19T00:56:58.487Z,-0.40
2023-01-19T00:59:25.785Z,-0.40
2023-01-19T01:01:52.551Z,-0.40
2023-01-19T01:04:19.296Z,-0.40
2023-01-19T01:06:45.820Z,-0.40
2023-01-19T01:09:12.327Z,-0.50
2023-01-19T01:11:39.871Z,-0.50
2023-01-19T01:14:07.256Z,-0.50
2023-01-19T01:16:33.934Z,-0.50
2023-01-19T01:19:00.623Z,-0.50
2023-01-19T01:21:27.182Z,-0.50
2023-01-19T01:23:53.746Z,-0.50
2023-01-19T01:26:20.369Z,-0.50
2023-01-19T01:28:46.893Z,-0.50
2023-01-19T01:31:13.482Z,-0.50
2023-01-19T01:33:41.808Z,-0.60
2023-01-19T01:36:09.185Z,-0.60
2023-01-19T01:38:35.692Z,-0.60
2023-01-19T01:41:02.205Z,-0.60
2023-01-19T01:43:41.878Z,-0.60
2023-01-19T01:46:08.438Z,-0.60
2023-01-19T01:48:36.420Z,-0.70
2023-01-19T01:51:23.993Z,-0.90
2023-01-19T01:54:10.538Z,-0.70
2023-01-19T01:56:40.162Z,-0.70
2023-01-19T01:59:09.140Z,-0.70
2023-01-19T02:01:55.178Z,-0.80
2023-01-19T02:04:22.943Z,-0.80
2023-01-19T02:07:08.285Z,-0.80
2023-01-19T02:09:54.772Z,-0.80
2023-01-19T02:12:40.881Z,-0.80
2023-01-19T02:15:15.083Z,-0.80
2023-01-19T02:17:41.943Z,-0.90
2023-01-19T02:20:10.605Z,-0.80
2023-01-19T02:22:42.437Z,-0.90
2023-01-19T02:25:09.081Z,-0.50
2023-01-19T02:27:37.010Z,-0.90
2023-01-19T02:30:04.086Z,-0.90
2023-01-19T02:32:30.630Z,-1.10
2023-01-19T02:34:57.499Z,-1.00
2023-01-19T02:37:24.317Z,-1.10
2023-01-19T02:40:01.700Z,-1.10
2023-01-19T02:42:32.108Z,-1.10
2023-01-19T02:44:58.708Z,-1.10
2023-01-19T02:47:25.281Z,-1.10
2023-01-19T02:49:55.948Z,-1.10
2023-01-19T02:52:22.662Z,-1.10
2023-01-19T02:54:49.136Z,-1.10
2023-01-19T02:57:35.374Z,-1.10
2023-01-19T03:00:21.396Z,-1.10
2023-01-19T03:02:53.419Z,-1.20
2023-01-19T03:05:29.026Z,-1.20
2023-01-19T03:08:06.048Z,-1.20
2023-01-19T03:10:50.405Z,-1.20
2023-01-19T03:13:32.847Z,-1.20
2023-01-19T03:16:09.011Z,-1.20
2023-01-19T03:18:36.976Z,-1.20
2023-01-19T03:21:05.414Z,-1.20
2023-01-19T03:23:33.115Z,-1.20
2023-01-19T03:26:00.459Z,-1.30
2023-01-19T03:28:28.336Z,-1.20
2023-01-19T03:31:01.422Z,-1.30
2023-01-19T03:33:30.385Z,-1.30
2023-01-19T03:36:05.450Z,-1.30
2023-01-19T03:38:37.266Z,-1.30
2023-01-19T03:41:06.368Z,-1.30
2023-01-19T03:43:33.856Z,-1.30
2023-01-19T03:46:00.978Z,-1.30
2023-01-19T03:48:27.543Z,-1.30
2023-01-19T03:50:55.265Z,-1.40
2023-01-19T03:53:22.738Z,-1.40
2023-01-19T03:55:50.649Z,-1.40
2023-01-19T03:58:17.274Z,-1.40
2023-01-19T04:00:43.819Z,-1.40
2023-01-19T04:03:13.077Z,-1.50
2023-01-19T04:05:39.873Z,-1.40
2023-01-19T04:08:06.645Z,-1.50
2023-01-19T04:10:33.200Z,-1.50
2023-01-19T04:13:01.013Z,-1.50
2023-01-19T04:15:28.710Z,-1.50
2023-01-19T04:17:57.539Z,-1.50
2023-01-19T04:20:24.324Z,-1.50
2023-01-19T04:22:50.867Z,-1.50
2023-01-19T04:25:17.400Z,-1.50
2023-01-19T04:27:43.933Z,-1.50
2023-01-19T04:30:10.698Z,-1.50
2023-01-19T04:32:37.291Z,-1.50
2023-01-19T04:35:03.902Z,-1.50
2023-01-19T04:37:30.428Z,-1.60
2023-01-19T04:39:56.941Z,-1.60
2023-01-19T04:42:23.886Z,-1.70
2023-01-19T04:44:50.363Z,-1.70
2023-01-19T04:47:16.881Z,-1.80
2023-01-19T04:49:43.361Z,-1.80
2023-01-19T04:52:09.918Z,-1.90
2023-01-19T04:54:36.421Z,-1.90
2023-01-19T04:57:03.098Z,-1.90
2023-01-19T04:59:29.599Z,-1.90
2023-01-19T05:01:56.452Z,-1.90
2023-01-19T05:04:25.527Z,-1.90
2023-01-19T05:06:52.044Z,-1.90
2023-01-19T05:09:18.697Z,-1.90
2023-01-19T05:11:45.233Z,-1.90
2023-01-19T05:14:11.800Z,-1.90
2023-01-19T05:16:38.328Z,-1.90
2023-01-19T05:19:04.969Z,-1.90
2023-01-19T05:21:31.577Z,-1.90
2023-01-19T05:23:58.352Z,-1.80
2023-01-19T05:26:24.943Z,-1.80
2023-01-19T05:28:51.519Z,-1.80
2023-01-19T05:31:19.583Z,-1.80
2023-01-19T05:33:46.338Z,-1.80
2023-01-19T05:36:12.867Z,-1.80
2023-01-19T05:38:39.443Z,-1.80
2023-01-19T05:41:05.981Z,-1.80
2023-01-19T05:43:32.543Z,-1.80
2023-01-19T05:45:59.049Z,-1.80
2023-01-19T05:48:25.729Z,-1.80
2023-01-19T05:50:56.460Z,-1.90
2023-01-19T05:53:23.183Z,-1.90
2023-01-19T05:55:49.708Z,-1.90
2023-01-19T05:58:16.852Z,-1.90
2023-01-19T06:00:43.390Z,-1.90
2023-01-19T06:03:09.946Z,-1.90
2023-01-19T06:05:38.521Z,-2.00
2023-01-19T06:08:05.352Z,-2.00
2023-01-19T06:10:31.917Z,-2.10
2023-01-19T06:12:59.002Z,-2.10
2023-01-19T06:15:25.763Z,-2.10
2023-01-19T06:17:52.255Z,-2.10
2023-01-19T06:20:18.845Z,-2.20
2023-01-19T06:22:45.471Z,-2.20
2023-01-19T06:25:12.531Z,-2.20
2023-01-19T06:27:42.890Z,-2.30
2023-01-19T06:30:09.853Z,-2.20
2023-01-19T06:32:36.460Z,-2.20
2023-01-19T06:35:03.004Z,-2.20
2023-01-19T06:37:30.720Z,-2.10
2023-01-19T06:39:57.342Z,-2.10
2023-01-19T06:42:23.922Z,-2.10
2023-01-19T06:44:50.417Z,-2.00
2023-01-19T06:47:16.931Z,-2.10
2023-01-19T06:49:43.673Z,-2.00
2023-01-19T06:52:11.382Z,-2.10
2023-01-19T06:54:38.118Z,-2.10
2023-01-19T06:57:04.639Z,-2.00
2023-01-19T06:59:31.800Z,-2.00
2023-01-19T07:01:59.223Z,-2.00
2023-01-19T07:04:27.111Z,-1.90
2023-01-19T07:06:53.735Z,-2.00
2023-01-19T07:09:20.493Z,-2.00
2023-01-19T07:11:48.151Z,-2.00
2023-01-19T07:14:14.820Z,-1.90
2023-01-19T07:16:41.539Z,-1.90
2023-01-19T07:19:10.588Z,-1.90
2023-01-19T07:21:37.347Z,-1.90
2023-01-19T07:24:03.900Z,-1.70
2023-01-19T07:26:30.888Z,-1.80
2023-01-19T07:28:57.445Z,-1.90
2023-01-19T07:31:24.282Z,-1.80
2023-01-19T07:33:51.009Z,-1.90
2023-01-19T07:36:17.629Z,-1.80
2023-01-19T07:38:44.138Z,-1.80
2023-01-19T07:41:10.905Z,-1.80
2023-01-19T07:43:37.683Z,-1.70
2023-01-19T07:46:05.274Z,-1.70
2023-01-19T07:48:31.960Z,-1.70
2023-01-19T07:51:05.141Z,-1.70
2023-01-19T07:53:32.234Z,-1.70
2023-01-19T07:55:58.760Z,-1.60
2023-01-19T07:58:26.452Z,-1.60
2023-01-19T08:00:53.464Z,-1.60
2023-01-19T08:03:20.261Z,-1.50
2023-01-19T08:05:49.776Z,-1.50
2023-01-19T08:08:16.352Z,-1.50
2023-01-19T08:10:43.120Z,-1.40
2023-01-19T08:13:09.788Z,-1.40
2023-01-19T08:15:36.435Z,-1.40
2023-01-19T08:18:08.366Z,-1.30
2023-01-19T08:20:35.112Z,-1.20
2023-01-19T08:23:02.932Z,-1.10
2023-01-19T08:25:40.939Z,-0.90
2023-01-19T08:28:07.931Z,-0.60
2023-01-19T08:30:35.076Z,-0.30
2023-01-19T08:33:04.920Z,-0.20
2023-01-19T08:35:31.968Z,-0.10
2023-01-19T08:38:01.293Z,0.20
2023-01-19T08:40:33.716Z,0.40
2023-01-19T08:43:03.554Z,0.60
2023-01-19T08:45:31.067Z,0.90
2023-01-19T08:48:00.623Z,1.20
2023-01-19T08:50:28.292Z,1.50
2023-01-19T08:52:58.462Z,1.80
2023-01-19T08:55:25.507Z,2.20
2023-01-19T08:57:53.115Z,2.20
2023-01-19T09:00:20.773Z,2.40
2023-01-19T09:02:47.676Z,2.80
2023-01-19T09:05:14.520Z,2.50
2023-01-19T09:07:41.657Z,2.70
2023-01-19T09:10:08.575Z,2.80
2023-01-19T09:12:35.167Z,2.80
2023-01-19T09:15:01.747Z,3.00
2023-01-19T09:17:28.609Z,3.10
2023-01-19T09:19:55.255Z,3.10
2023-01-19T09:22:21.787Z,3.30
2023-01-19T09:24:48.572Z,3.70
2023-01-19T09:27:15.144Z,4.00
2023-01-19T09:29:41.917Z,4.40
2023-01-19T09:32:11.099Z,4.30
2023-01-19T09:34:37.576Z,4.60
2023-01-19T09:37:04.135Z,4.70
2023-01-19T09:39:30.807Z,4.70
2023-01-19T09:42:03.174Z,4.90
2023-01-19T09:44:31.598Z,4.70
2023-01-19T09:46:58.610Z,4.80
2023-01-19T09:49:36.626Z,4.80
2023-01-19T09:52:03.571Z,4.90
2023-01-19T09:54:34.162Z,4.80
2023-01-19T09:57:00.748Z,4.80
2023-01-19T09:59:30.946Z,4.80
2023-01-19T10:01:57.641Z,5.10
2023-01-19T10:04:27.274Z,5.70
2023-01-19T10:06:59.568Z,5.70
2023-01-19T10:09:52.212Z,5.70
2023-01-19T10:12:33.094Z,5.80
2023-01-19T10:15:15.251Z,6.20
2023-01-19T10:17:52.853Z,6.10
2023-01-19T10:20:27.841Z,6.10
2023-01-19T10:22:56.195Z,5.60
2023-01-19T10:25:24.396Z,5.50
2023-01-19T10:27:51.235Z,5.50
2023-01-19T10:30:28.871Z,5.20
2023-01-19T10:32:55.595Z,5.00
2023-01-19T10:35:25.965Z,4.90
2023-01-19T10:37:56.633Z,4.70
2023-01-19T10:40:34.875Z,4.70
2023-01-19T10:43:01.961Z,4.40
2023-01-19T10:45:30.337Z,4.20
2023-01-19T10:48:04.793Z,4.10
2023-01-19T10:50:32.770Z,4.00
2023-01-19T10:53:00.805Z,3.90
2023-01-19T10:55:32.972Z,4.00
2023-01-19T10:58:00.132Z,3.90
2023-01-19T11:00:37.565Z,3.80
2023-01-19T11:03:06.052Z,3.70
2023-01-19T11:05:35.473Z,3.60
2023-01-19T11:08:21.298Z,3.70
2023-01-19T11:10:52.491Z,3.70
2023-01-19T11:13:19.041Z,3.90
2023-01-19T11:15:50.369Z,4.40
2023-01-19T11:18:35.658Z,5.20
2023-01-19T11:21:03.461Z,6.70
2023-01-19T11:23:32.439Z,7.70
2023-01-19T11:26:01.377Z,8.50
2023-01-19T11:28:30.914Z,9.10
2023-01-19T11:30:59.132Z,9.50
2023-01-19T11:33:41.572Z,9.20
2023-01-19T11:36:16.125Z,8.80
2023-01-19T11:38:43.608Z,8.10
2023-01-19T11:41:16.718Z,7.50
2023-01-19T11:43:49.114Z,7.10
2023-01-19T11:46:16.599Z,6.80
2023-01-19T11:48:46.142Z,6.30
2023-01-19T11:51:14.465Z,6.60
2023-01-19T11:53:45.374Z,6.30
2023-01-19T11:56:13.518Z,6.20
2023-01-19T11:58:41.918Z,6.20
2023-01-19T12:01:21.184Z,6.20
2023-01-19T12:03:54.889Z,6.20
2023-01-19T12:06:24.285Z,6.20
2023-01-19T12:08:55.984Z,6.10
2023-01-19T12:11:34.369Z,6.20
2023-01-19T12:14:01.437Z,6.10
2023-01-19T12:16:32.850Z,5.90
2023-01-19T12:19:01.099Z,5.90
2023-01-19T12:21:27.618Z,5.80
2023-01-19T12:24:12.597Z,5.60
2023-01-19T12:26:57.949Z,5.60
2023-01-19T12:29:26.695Z,5.40
2023-01-19T12:32:16.666Z,5.40
2023-01-19T12:34:50.150Z,5.30
2023-01-19T12:37:31.979Z,5.20
2023-01-19T12:40:18.823Z,5.20
2023-01-19T12:42:46.840Z,5.10
2023-01-19T12:45:25.438Z,4.80
2023-01-19T12:47:55.071Z,4.80
2023-01-19T12:50:24.055Z,4.70
2023-01-19T12:52:56.930Z,4.70
2023-01-19T12:55:23.426Z,4.60
2023-01-19T12:57:58.401Z,4.80
2023-01-19T13:00:24.869Z,5.30
2023-01-19T13:02:51.804Z,5.60
2023-01-19T13:05:32.536Z,5.70
2023-01-19T13:08:03.017Z,5.80
2023-01-19T13:10:48.213Z,5.70
2023-01-19T13:13:19.294Z,5.70
2023-01-19T13:15:46.053Z,5.60
2023-01-19T13:18:19.932Z,5.60
2023-01-19T13:20:50.248Z,5.60
2023-01-19T13:23:19.137Z,5.50
2023-01-19T13:25:53.396Z,5.40
2023-01-19T13:28:23.728Z,5.20
2023-01-19T13:30:53.523Z,5.00
2023-01-19T13:33:22.241Z,5.00
2023-01-19T13:35:53.045Z,4.90
2023-01-19T13:38:20.131Z,4.90
2023-01-19T13:40:46.909Z,4.70
2023-01-19T13:43:16.450Z,4.50
2023-01-19T13:45:49.532Z,4.50
2023-01-19T13:48:19.004Z,4.50
2023-01-19T13:50:56.134Z,4.50
2023-01-19T13:53:24.093Z,4.40
2023-01-19T13:56:09.659Z,4.40
2023-01-19T13:58:36.176Z,4.30
2023-01-19T14:01:02.778Z,4.30
2023-01-19T14:03:29.395Z,4.30
2023-01-19T14:05:56.104Z,4.30
2023-01-19T14:08:23.092Z,4.30
2023-01-19T14:10:56.363Z,4.30
2023-01-19T14:13:30.764Z,4.20
2023-01-19T14:15:59.028Z,4.20
2023-01-19T14:18:35.641Z,4.20
2023-01-19T14:21:12.251Z,4.20
2023-01-19T14:23:41.785Z,4.10
2023-01-19T14:26:27.214Z,4.20
2023-01-19T14:28:53.775Z,4.10
2023-01-19T14:31:21.966Z,4.00
2023-01-19T14:33:49.527Z,4.00
2023-01-19T14:36:24.689Z,3.90
2023-01-19T14:38:51.592Z,3.90
2023-01-19T14:41:26.956Z,3.90
2023-01-19T14:43:55.949Z,3.90
2023-01-19T14:46:23.546Z,3.80
2023-01-19T14:48:51.365Z,3.80
2023-01-19T14:51:19.008Z,3.80
2023-01-19T14:53:47.883Z,3.80
2023-01-19T14:56:24.344Z,3.70
2023-01-19T14:58:50.878Z,3.70
2023-01-19T15:01:17.632Z,3.70
2023-01-19T15:03:45.697Z,3.50
2023-01-19T15:06:16.708Z,3.60
2023-01-19T15:08:43.745Z,3.60
2023-01-19T15:11:16.512Z,3.60
2023-01-19T15:13:44.292Z,3.60
2023-01-19T15:16:10.954Z,3.60
2023-01-19T15:18:38.685Z,3.50
2023-01-19T15:21:05.295Z,3.50
2023-01-19T15:23:32.682Z,3.50
2023-01-19T15:26:02.560Z,3.50
2023-01-19T15:28:29.442Z,3.50
2023-01-19T15:30:57.520Z,3.50
2023-01-19T15:33:25.274Z,3.40
2023-01-19T15:35:52.197Z,3.40
2023-01-19T15:38:18.755Z,3.30
2023-01-19T15:40:48.023Z,3.30
2023-01-19T15:43:17.633Z,3.20
2023-01-19T15:45:47.932Z,3.20
2023-01-19T15:48:14.620Z,3.20
2023-01-19T15:50:44.758Z,3.20
2023-01-19T15:53:13.513Z,3.10
2023-01-19T15:55:40.215Z,3.10
2023-01-19T15:58:06.783Z,3.10
2023-01-19T16:00:34.211Z,3.00
2023-01-19T16:03:02.134Z,3.00
2023-01-19T16:05:42.036Z,2.90
2023-01-19T16:08:09.939Z,2.90
2023-01-19T16:10:36.526Z,2.50
2023-01-19T16:13:03.650Z,2.70
2023-01-19T16:15:30.179Z,2.70
2023-01-19T16:17:56.726Z,2.60
2023-01-19T16:20:23.278Z,2.50
2023-01-19T16:22:49.795Z,2.50
2023-01-19T16:25:16.354Z,2.40
2023-01-19T16:27:43.075Z,2.40
2023-01-19T16:30:11.560Z,2.30
2023-01-19T16:32:38.713Z,1.60
2023-01-19T16:35:05.527Z,2.30
2023-01-19T16:37:32.144Z,2.20
2023-01-19T16:39:58.712Z,2.20
2023-01-19T16:42:25.320Z,2.20
2023-01-19T16:44:51.935Z,2.10
2023-01-19T16:47:18.504Z,2.00
2023-01-19T16:49:45.086Z,2.00
2023-01-19T16:52:11.659Z,1.90
2023-01-19T16:54:40.574Z,1.90
2023-01-19T16:57:07.070Z,2.00
2023-01-19T16:59:33.659Z,1.90
2023-01-19T17:02:00.351Z,1.80
2023-01-19T17:04:27.310Z,1.80
2023-01-19T17:06:54.316Z,1.80
2023-01-19T17:09:20.908Z,1.80
2023-01-19T17:11:47.531Z,1.80
2023-01-19T17:14:17.158Z,1.80
2023-01-19T17:16:43.939Z,2.00
2023-01-19T17:19:13.519Z,1.90
2023-01-19T17:21:40.001Z,1.90
2023-01-19T17:24:06.708Z,1.80
2023-01-19T17:26:33.271Z,1.80
2023-01-19T17:29:00.215Z,1.80
2023-01-19T17:31:27.175Z,1.80
2023-01-19T17:33:53.787Z,1.80
2023-01-19T17:36:22.531Z,1.80
2023-01-19T17:38:49.831Z,1.80
2023-01-19T17:41:17.601Z,1.80
2023-01-19T17:43:44.716Z,1.80
2023-01-19T17:46:11.336Z,1.80
2023-01-19T17:48:38.207Z,1.80
2023-01-19T17:51:09.278Z,1.80
2023-01-19T17:53:36.420Z,1.80
2023-01-19T17:56:03.934Z,1.80
2023-01-19T17:58:31.376Z,1.80
2023-01-19T18:00:58.178Z,1.90
2023-01-19T18:03:24.839Z,1.80
2023-01-19T18:05:55.149Z,1.80
2023-01-19T18:08:21.684Z,1.80
2023-01-19T18:10:54.694Z,1.90
2023-01-19T18:13:21.291Z,1.90
2023-01-19T18:15:47.873Z,1.90
2023-01-19T18:18:14.995Z,1.90
2023-01-19T18:20:44.452Z,1.90
2023-01-19T18:23:11.514Z,1.80
2023-01-19T18:25:39.498Z,1.80
2023-01-19T18:28:06.767Z,1.80
2023-01-19T18:30:36.736Z,1.80
2023-01-19T18:33:03.549Z,1.80
2023-01-19T18:35:30.097Z,1.80
2023-01-19T18:37:58.417Z,1.80
2023-01-19T18:40:26.441Z,1.90
2023-01-19T18:42:52.941Z,1.90
2023-01-19T18:45:19.450Z,1.90
2023-01-19T18:47:45.935Z,1.90
2023-01-19T18:50:14.374Z,1.90
2023-01-19T18:52:41.143Z,1.90
2023-01-19T18:55:08.093Z,1.90
2023-01-19T18:57:35.204Z,1.90
2023-01-19T19:00:02.137Z,2.10
2023-01-19T19:02:28.728Z,1.90
2023-01-19T19:04:55.295Z,1.90
2023-01-19T19:07:21.813Z,1.90
2023-01-19T19:09:48.407Z,1.90
2023-01-19T19:12:14.957Z,1.80
2023-01-19T19:14:41.504Z,1.90
2023-01-19T19:17:08.038Z,1.80
2023-01-19T19:19:34.576Z,1.80
2023-01-19T19:22:01.264Z,1.90
2023-01-19T19:24:27.809Z,1.80
2023-01-19T19:26:54.335Z,3.40
2023-01-19T19:29:20.833Z,6.80
2023-01-19T19:31:47.560Z,8.60
2023-01-19T19:34:14.168Z,9.60
2023-01-19T19:36:41.899Z,10.20
2023-01-19T19:39:08.433Z,10.60
2023-01-19T19:41:37.172Z,10.70
2023-01-19T19:44:03.680Z,10.70
2023-01-19T19:46:30.413Z,10.70
2023-01-19T19:48:56.993Z,10.70
2023-01-19T19:51:25.581Z,10.50
2023-01-19T19:53:53.217Z,10.60
2023-01-19T19:56:23.856Z,10.50
2023-01-19T19:58:51.325Z,9.00
2023-01-19T20:01:19.284Z,6.90
2023-01-19T20:03:46.105Z,5.60
2023-01-19T20:06:14.170Z,4.80
2023-01-19T20:08:41.050Z,4.10
2023-01-19T20:11:09.333Z,3.70
2023-01-19T20:13:36.822Z,3.40
2023-01-19T20:16:04.132Z,3.10
2023-01-19T20:18:30.720Z,2.90
2023-01-19T20:20:57.981Z,2.90
2023-01-19T20:23:24.577Z,2.70
2023-01-19T20:25:51.351Z,2.70
2023-01-19T20:28:17.991Z,2.60
2023-01-19T20:30:44.607Z,2.50
2023-01-19T20:33:11.186Z,2.40
2023-01-19T20:35:37.736Z,2.40
2023-01-19T20:38:04.290Z,2.30
2023-01-19T20:40:30.859Z,2.20
2023-01-19T20:42:57.414Z,2.20
2023-01-19T20:45:25.936Z,2.10
2023-01-19T20:47:53.146Z,2.10
2023-01-19T20:50:19.779Z,2.20
2023-01-19T20:52:46.508Z,2.10
2023-01-19T20:55:14.047Z,2.10
2023-01-19T20:57:40.719Z,2.00
2023-01-19T21:00:07.586Z,2.00
2023-01-19T21:02:34.220Z,2.00
2023-01-19T21:05:00.774Z,2.00
2023-01-19T21:07:27.365Z,1.90
2023-01-19T21:09:53.934Z,1.90
2023-01-19T21:12:22.911Z,1.90
2023-01-19T21:14:49.389Z,1.90
2023-01-19T21:17:15.942Z,1.90
2023-01-19T21:19:42.522Z,1.90
2023-01-19T21:22:09.126Z,1.90
2023-01-19T21:24:35.675Z,1.90
2023-01-19T21:27:02.253Z,1.90
2023-01-19T21:29:28.957Z,1.90
2023-01-19T21:31:55.603Z,1.90
2023-01-19T21:34:22.203Z,1.90
2023-01-19T21:36:48.842Z,1.90
2023-01-19T21:39:17.229Z,1.90
2023-01-19T21:41:45.032Z,1.90
2023-01-19T21:44:12.389Z,1.90
2023-01-19T21:46:39.227Z,1.90
2023-01-19T21:49:06.669Z,1.90
2023-01-19T21:51:34.620Z,1.80
2023-01-19T21:54:01.977Z,1.80
2023-01-19T21:56:29.393Z,1.90
2023-01-19T21:58:56.679Z,1.90
2023-01-19T22:01:23.734Z,1.80
2023-01-19T22:03:53.899Z,1.80
2023-01-19T22:06:20.815Z,1.90
2023-01-19T22:08:47.655Z,1.80
2023-01-19T22:11:15.404Z,1.80
2023-01-19T22:13:42.033Z,1.80
2023-01-19T22:16:16.019Z,1.90
2023-01-19T22:18:43.828Z,1.80
2023-01-19T22:21:12.001Z,1.90
2023-01-19T22:23:38.744Z,1.90
2023-01-19T22:26:05.727Z,1.90
2023-01-19T22:28:32.655Z,2.00
2023-01-19T22:31:06.889Z,2.00
2023-01-19T22:33:33.673Z,1.90
2023-01-19T22:36:14.180Z,1.90
2023-01-19T22:38:41.193Z,1.80
2023-01-19T22:41:11.836Z,1.90
2023-01-19T22:43:38.424Z,1.90
2023-01-19T22:46:07.263Z,1.90
2023-01-19T22:48:35.082Z,1.90
2023-01-19T22:51:01.599Z,1.90
2023-01-19T22:53:29.867Z,1.90
2023-01-19T22:55:56.368Z,1.90
2023-01-19T22:58:22.876Z,1.90
2023-01-19T23:00:49.437Z,1.80
2023-01-19T23:03:16.089Z,1.90
2023-01-19T23:05:42.711Z,1.90
2023-01-19T23:08:09.231Z,1.90
2023-01-19T23:10:38.106Z,1.90
2023-01-19T23:13:04.683Z,2.00
2023-01-19T23:15:32.528Z,2.00
2023-01-19T23:17:59.107Z,2.00
2023-01-19T23:20:25.733Z,2.10
2023-01-19T23:22:52.258Z,2.00
2023-01-19T23:25:18.750Z,2.00
2023-01-19T23:27:45.249Z,2.00
2023-01-19T23:30:12.017Z,2.00
2023-01-19T23:32:38.589Z,2.00
2023-01-19T23:35:05.226Z,2.00
2023-01-19T23:37:31.751Z,2.00
2023-01-19T23:39:58.282Z,2.10
2023-01-19T23:42:24.816Z,2.00
2023-01-19T23:44:51.479Z,2.00
2023-01-19T23:47:18.005Z,2.00
2023-01-19T23:49:44.495Z,2.00
2023-01-19T23:52:11.031Z,2.00
2023-01-19T23:54:37.563Z,2.00
2023-01-19T23:57:04.088Z,2.00
2023-01-19T23:59:30.572Z,2.30
